Time;durP1;ratioP1;P1;durP2;ratioP2;P2;SDS_P1;SDS_P2;PMS_P1;PMS_P2;Temp;Humidity;BMP_temperature;BMP_pressure;BME280_temperature;BME280_humidity;BME280_pressure;Samples;Min_cycle;Max_cycle;Signal;HPM_P1;HPM_P2
2022/12/06 04:01:58;;;;;;;0.60;0.60;;;6.60;80.50;;;;;;5447051;23;20485;-75
2022/12/06 04:04:25;;;;;;;0.60;0.60;;;6.60;80.50;;;;;;4997259;28;20445;-75
2022/12/06 04:06:52;;;;;;;0.70;0.70;;;6.60;80.70;;;;;;4996669;28;20456;-75
2022/12/06 04:14:49;;;;;;;0.70;0.70;;;6.50;80.40;;;;;;4996297;28;20425;-75
2022/12/06 04:20:07;;;;;;;0.60;0.60;;;6.50;80.80;;;;;;4981362;28;20449;-75
2022/12/06 04:25:18;;;;;;;0.70;0.70;;;6.40;80.40;;;;;;4996789;28;20409;-75
2022/12/06 04:38:43;;;;;;;0.70;0.70;;;6.10;81.10;;;;;;4996479;28;20429;-75
2022/12/06 04:41:10;;;;;;;0.60;0.60;;;6.10;81.30;;;;;;4996276;28;20474;-75
2022/12/06 04:43:42;;;;;;;0.60;0.60;;;6.00;81.30;;;;;;4996297;28;20821;-75
2022/12/06 04:46:09;;;;;;;0.50;0.50;;;5.90;81.70;;;;;;4996216;28;20455;-75
2022/12/06 04:48:38;;;;;;;0.60;0.60;;;5.90;81.80;;;;;;4996191;28;20826;-75
2022/12/06 04:51:05;;;;;;;0.70;0.70;;;5.90;81.80;;;;;;4996099;28;20469;-75
2022/12/06 04:53:31;;;;;;;0.60;0.60;;;6.00;81.50;;;;;;4996077;28;20485;-75
2022/12/06 04:55:58;;;;;;;0.60;0.60;;;5.80;81.80;;;;;;4995890;28;20464;-75
2022/12/06 04:58:25;;;;;;;0.70;0.70;;;5.70;81.80;;;;;;4995992;28;20460;-75
2022/12/06 05:00:54;;;;;;;0.60;0.60;;;5.50;82.70;;;;;;4995632;28;20484;-75
2022/12/06 05:03:21;;;;;;;0.57;0.57;;;5.50;82.90;;;;;;4995966;28;20429;-75
2022/12/06 05:05:49;;;;;;;0.60;0.60;;;5.60;82.70;;;;;;4995877;28;20445;-75
2022/12/06 05:08:16;;;;;;;0.60;0.60;;;5.50;82.50;;;;;;4995835;28;20452;-75
2022/12/06 05:10:46;;;;;;;0.60;0.60;;;5.30;83.10;;;;;;4995759;28;20543;-75
2022/12/06 05:13:13;;;;;;;0.70;0.70;;;5.40;83.40;;;;;;4995686;28;20476;-75
2022/12/06 05:15:40;;;;;;;0.70;0.70;;;5.40;83.30;;;;;;4995689;28;20545;-75
2022/12/06 05:18:07;;;;;;;0.70;0.70;;;5.50;83.30;;;;;;4995621;28;20457;-75
2022/12/06 05:20:33;;;;;;;0.60;0.60;;;5.60;83.10;;;;;;4995544;28;20449;-75
2022/12/06 05:23:02;;;;;;;0.60;0.60;;;5.50;82.40;;;;;;4995286;28;20950;-75
2022/12/06 05:25:29;;;;;;;0.70;0.70;;;5.50;82.50;;;;;;4995493;28;20450;-75
2022/12/06 05:27:55;;;;;;;0.60;0.60;;;5.50;82.70;;;;;;4995452;28;20449;-75
2022/12/06 05:30:22;;;;;;;0.70;0.70;;;5.40;82.80;;;;;;4995047;28;20492;-75
2022/12/06 05:32:49;;;;;;;0.60;0.60;;;5.20;83.40;;;;;;4995288;28;20481;-75
2022/12/06 05:35:16;;;;;;;0.60;0.60;;;5.20;83.60;;;;;;4995381;28;20446;-75
2022/12/06 05:37:42;;;;;;;0.60;0.60;;;5.20;83.90;;;;;;4995307;28;20508;-75
2022/12/06 05:40:11;;;;;;;0.70;0.70;;;5.40;84.00;;;;;;4994960;28;20958;-75
2022/12/06 05:42:39;;;;;;;0.80;0.80;;;5.50;83.40;;;;;;4994794;28;20850;-75
2022/12/06 05:45:07;;;;;;;0.73;0.73;;;5.40;82.90;;;;;;4995135;28;20454;-75
2022/12/06 05:47:33;;;;;;;0.77;0.77;;;5.40;83.30;;;;;;4995104;28;20450;-75
2022/12/06 05:50:00;;;;;;;0.60;0.60;;;5.40;83.00;;;;;;4995017;28;20454;-75
2022/12/06 05:52:27;;;;;;;0.67;0.67;;;5.20;83.60;;;;;;4994933;28;20469;-75
2022/12/06 05:54:54;;;;;;;0.80;0.80;;;5.30;83.80;;;;;;4994988;28;20437;-75
2022/12/06 05:57:22;;;;;;;0.70;0.70;;;5.30;83.40;;;;;;4994587;28;20969;-75
2022/12/06 05:59:48;;;;;;;0.70;0.70;;;5.40;83.40;;;;;;4994966;28;20449;-75
2022/12/06 06:02:15;;;;;;;0.97;0.97;;;5.50;83.10;;;;;;4994377;28;21025;-75
2022/12/06 06:04:42;;;;;;;0.60;0.60;;;5.50;82.40;;;;;;4994759;28;20462;-74
2022/12/06 06:07:08;;;;;;;0.70;0.70;;;5.50;82.70;;;;;;4994754;28;20456;-75
2022/12/06 06:09:35;;;;;;;0.70;0.70;;;5.40;82.60;;;;;;4994168;28;20474;-74
2022/12/06 06:12:02;;;;;;;0.80;0.80;;;5.50;82.70;;;;;;4994586;28;20477;-75
2022/12/06 06:14:30;;;;;;;0.70;0.70;;;5.60;82.70;;;;;;4994204;28;21021;-75
2022/12/06 06:16:56;;;;;;;0.60;0.60;;;5.70;82.20;;;;;;4994622;28;20460;-76
2022/12/06 06:19:23;;;;;;;0.70;0.70;;;5.80;82.10;;;;;;4994499;28;20446;-76
2022/12/06 06:21:50;;;;;;;0.70;0.70;;;5.90;82.00;;;;;;4994427;28;20469;-76
2022/12/06 06:24:17;;;;;;;0.80;0.80;;;5.90;81.20;;;;;;4994143;28;20930;-74
2022/12/06 06:26:43;;;;;;;0.60;0.60;;;5.90;80.90;;;;;;4994377;28;20453;-76
2022/12/06 06:29:10;;;;;;;0.60;0.60;;;6.00;80.70;;;;;;4994082;28;20457;-76
2022/12/06 06:31:38;;;;;;;0.60;0.60;;;6.00;80.40;;;;;;4994370;28;20482;-76
2022/12/06 06:34:05;;;;;;;0.70;0.70;;;6.00;80.30;;;;;;4994350;28;20481;-76
2022/12/06 06:36:31;;;;;;;0.70;0.70;;;6.10;80.70;;;;;;4994322;28;20453;-76
2022/12/06 06:38:58;;;;;;;0.60;0.60;;;6.10;80.60;;;;;;4994210;28;20445;-76
2022/12/06 06:41:25;;;;;;;0.80;0.80;;;6.20;80.30;;;;;;4994412;28;20503;-76
2022/12/06 06:43:52;;;;;;;0.57;0.57;;;6.20;80.00;;;;;;4994154;28;20806;-76
2022/12/06 06:46:18;;;;;;;0.60;0.60;;;6.30;80.20;;;;;;4994132;28;20453;-76
2022/12/06 06:48:46;;;;;;;0.73;0.73;;;6.10;80.10;;;;;;4994084;28;20442;-76
2022/12/06 06:51:14;;;;;;;0.70;0.70;;;6.00;80.50;;;;;;4993973;28;20469;-76
2022/12/06 06:53:41;;;;;;;0.70;0.70;;;6.00;80.90;;;;;;4993892;28;20576;-76
2022/12/06 06:56:08;;;;;;;0.60;0.60;;;6.00;80.80;;;;;;4995084;28;20453;-76
2022/12/06 06:58:35;;;;;;;0.70;0.70;;;6.00;80.40;;;;;;4993947;28;20873;-76
2022/12/06 07:01:04;;;;;;;0.80;0.80;;;6.10;80.20;;;;;;4993514;28;20994;-76
2022/12/06 07:03:31;;;;;;;0.73;0.73;;;6.20;80.10;;;;;;4993904;28;20451;-76
2022/12/06 07:06:02;;;;;;;0.70;0.70;;;6.10;79.60;;;;;;4993573;28;20958;-76
2022/12/06 07:08:31;;;;;;;0.60;0.60;;;6.00;79.70;;;;;;4993601;28;20934;-75
2022/12/06 07:10:58;;;;;;;0.70;0.70;;;5.90;80.30;;;;;;4993792;28;20500;-75
2022/12/06 07:13:26;;;;;;;0.70;0.70;;;6.00;80.30;;;;;;4993698;28;20486;-75
2022/12/06 07:15:53;;;;;;;0.60;0.60;;;6.00;80.30;;;;;;4993825;28;20817;-75
2022/12/06 07:18:20;;;;;;;0.60;0.60;;;6.00;80.10;;;;;;4993758;28;20452;-75
2022/12/06 07:20:48;;;;;;;0.70;0.70;;;6.00;80.20;;;;;;4996633;28;20472;-75
2022/12/06 07:23:16;;;;;;;0.60;0.60;;;5.90;79.90;;;;;;4997762;28;20495;-75
2022/12/06 07:25:43;;;;;;;0.70;0.70;;;5.90;80.20;;;;;;4997714;28;20450;-75
2022/12/06 07:28:09;;;;;;;0.63;0.63;;;5.70;80.20;;;;;;4997659;28;20821;-76
2022/12/06 07:30:36;;;;;;;0.70;0.70;;;5.70;80.50;;;;;;4997571;28;20461;-76
2022/12/06 07:33:03;;;;;;;0.63;0.63;;;5.70;80.30;;;;;;4997581;28;20805;-75
2022/12/06 07:35:29;;;;;;;0.80;0.80;;;5.60;80.80;;;;;;4997629;28;20448;-72
2022/12/06 07:37:56;;;;;;;0.73;0.73;;;5.60;80.80;;;;;;4997650;28;20449;-75
2022/12/06 07:40:24;;;;;;;0.60;0.60;;;5.60;81.30;;;;;;4997421;28;20445;-78
2022/12/06 07:45:36;;;;;;;0.70;0.70;;;5.60;81.00;;;;;;4998594;28;20449;-78
2022/12/06 07:48:05;;;;;;;0.70;0.70;;;5.80;80.60;;;;;;4997066;28;20942;-74
2022/12/06 07:50:31;;;;;;;0.60;0.60;;;5.80;80.40;;;;;;4997788;28;20475;-78
2022/12/06 07:52:59;;;;;;;0.90;0.90;;;5.90;80.30;;;;;;4997295;28;20449;-79
2022/12/06 07:55:27;;;;;;;0.70;0.70;;;5.90;80.60;;;;;;4997905;28;20489;-78
2022/12/06 07:57:53;;;;;;;0.60;0.60;;;5.70;79.90;;;;;;5003986;28;20453;-76
2022/12/06 08:00:21;;;;;;;0.70;0.70;;;5.50;80.80;;;;;;4998536;28;20457;-79
2022/12/06 08:02:48;;;;;;;0.60;0.60;;;5.50;81.40;;;;;;4996716;28;20464;-78
2022/12/06 08:05:14;;;;;;;0.70;0.70;;;5.60;81.70;;;;;;4996945;28;20816;-78
2022/12/06 08:07:41;;;;;;;0.70;0.70;;;5.70;81.20;;;;;;4997132;28;20456;-78
2022/12/06 08:10:08;;;;;;;0.70;0.70;;;5.70;81.00;;;;;;4996737;28;20461;-79
2022/12/06 08:12:37;;;;;;;0.80;0.80;;;5.80;81.20;;;;;;4996950;28;20469;-79
2022/12/06 08:15:04;;;;;;;0.80;0.80;;;5.90;80.60;;;;;;4996940;28;20487;-79
2022/12/06 08:17:31;;;;;;;0.80;0.80;;;6.00;80.50;;;;;;4997022;28;20453;-79
2022/12/06 08:19:58;;;;;;;0.70;0.70;;;6.10;80.60;;;;;;4996844;28;20449;-79
2022/12/06 08:22:24;;;;;;;0.77;0.77;;;6.10;80.30;;;;;;4996728;28;20465;-78
2022/12/06 08:24:51;;;;;;;0.80;0.80;;;6.30;79.90;;;;;;4997019;28;20453;-79
2022/12/06 08:27:18;;;;;;;0.70;0.70;;;6.30;79.50;;;;;;4996827;28;20445;-79
2022/12/06 08:29:46;;;;;;;0.77;0.77;;;6.40;79.40;;;;;;4996847;28;20835;-79
2022/12/06 08:32:13;;;;;;;0.60;0.60;;;6.40;79.30;;;;;;4996021;28;20469;-79
2022/12/06 08:34:39;;;;;;;0.57;0.57;;;6.40;78.90;;;;;;4996445;28;20481;-76
2022/12/06 08:37:06;;;;;;;0.60;0.60;;;6.50;79.10;;;;;;4996455;28;20533;-78
2022/12/06 08:39:33;;;;;;;0.60;0.60;;;6.60;79.20;;;;;;4996146;28;20981;-78
2022/12/06 08:42:02;;;;;;;0.70;0.70;;;6.60;79.00;;;;;;4996464;28;20524;-79
2022/12/06 08:44:30;;;;;;;0.70;0.70;;;6.60;78.80;;;;;;4996335;28;20874;-79
2022/12/06 08:47:00;;;;;;;0.63;0.63;;;6.60;78.90;;;;;;4996370;28;20464;-78
2022/12/06 08:49:28;;;;;;;0.67;0.67;;;6.50;79.20;;;;;;4996276;28;20454;-79
2022/12/06 08:51:55;;;;;;;0.60;0.60;;;6.60;79.20;;;;;;4996190;28;20477;-79
2022/12/06 08:54:24;;;;;;;0.60;0.60;;;6.70;79.20;;;;;;5006354;28;20496;-78
2022/12/06 08:56:51;;;;;;;0.70;0.70;;;6.70;79.10;;;;;;5000323;28;20449;-78
2022/12/06 08:59:19;;;;;;;0.73;0.73;;;6.70;79.20;;;;;;4997596;28;20488;-79
2022/12/06 09:01:46;;;;;;;0.70;0.70;;;6.80;79.10;;;;;;4995727;28;20481;-79
2022/12/06 09:04:15;;;;;;;0.70;0.70;;;6.90;79.30;;;;;;4996105;28;20449;-79
2022/12/06 09:06:43;;;;;;;0.70;0.70;;;6.80;79.30;;;;;;4995888;28;20453;-78
2022/12/06 09:09:11;;;;;;;0.70;0.70;;;6.90;79.10;;;;;;4996584;28;20462;-79
2022/12/06 09:11:38;;;;;;;0.70;0.70;;;7.00;79.00;;;;;;4996156;28;20496;-78
2022/12/06 09:14:06;;;;;;;0.60;0.60;;;7.00;78.80;;;;;;4996716;28;20492;-78
2022/12/06 09:16:33;;;;;;;0.80;0.80;;;7.10;78.50;;;;;;4996018;28;20453;-78
2022/12/06 09:18:59;;;;;;;0.70;0.70;;;7.20;78.50;;;;;;4996638;28;20453;-78
2022/12/06 09:21:29;;;;;;;0.70;0.70;;;7.20;78.40;;;;;;4996278;28;20545;-77
2022/12/06 09:23:58;;;;;;;0.70;0.70;;;7.20;78.70;;;;;;4996634;28;20449;-78
2022/12/06 09:26:25;;;;;;;0.70;0.70;;;7.30;78.40;;;;;;4996090;28;20464;-78
2022/12/06 09:28:54;;;;;;;0.90;0.90;;;7.30;78.10;;;;;;4995941;28;20460;-78
2022/12/06 09:31:21;;;;;;;0.80;0.80;;;7.10;77.90;;;;;;4996359;28;20466;-78
2022/12/06 09:33:48;;;;;;;0.80;0.80;;;7.10;78.50;;;;;;4996191;28;20826;-78
2022/12/06 09:36:19;;;;;;;0.70;0.70;;;7.20;78.60;;;;;;4996162;28;20452;-78
2022/12/06 09:38:50;;;;;;;0.70;0.70;;;7.30;78.60;;;;;;4996025;28;20433;-78
2022/12/06 09:41:43;;;;;;;0.90;0.90;;;7.30;78.40;;;;;;4995408;28;20509;-78
2022/12/06 09:44:29;;;;;;;0.70;0.70;;;7.30;78.50;;;;;;4995014;28;20927;-78
2022/12/06 09:47:08;;;;;;;1.03;1.03;;;7.30;78.40;;;;;;4995488;28;20437;-78
2022/12/06 09:49:45;;;;;;;0.80;0.80;;;7.40;78.40;;;;;;4995626;28;20437;-78
2022/12/06 09:52:45;;;;;;;0.80;0.80;;;7.30;78.40;;;;;;4995439;28;21012;-79
2022/12/06 09:55:38;;;;;;;0.80;0.80;;;6.80;79.60;;;;;;4981419;28;20484;-78
2022/12/06 09:58:13;;;;;;;0.73;0.73;;;6.70;80.60;;;;;;4996039;28;20473;-79
2022/12/06 10:00:47;;;;;;;0.70;0.70;;;6.80;80.40;;;;;;4997141;28;20485;-79
2022/12/06 10:03:32;;;;;;;0.70;0.70;;;6.80;80.50;;;;;;4995961;28;20453;-79
2022/12/06 10:06:01;;;;;;;0.70;0.70;;;6.80;80.60;;;;;;4995395;28;20448;-79
2022/12/06 10:08:47;;;;;;;0.80;0.80;;;6.90;80.70;;;;;;4996226;28;20508;-78
2022/12/06 10:11:26;;;;;;;0.80;0.80;;;7.00;80.40;;;;;;4995370;28;20990;-78
2022/12/06 10:14:04;;;;;;;0.80;0.80;;;7.10;80.30;;;;;;4996199;28;20445;-78
2022/12/06 10:19:09;;;;;;;0.97;0.90;;;7.30;79.70;;;;;;4994273;28;20468;-79
2022/12/06 10:21:49;;;;;;;0.70;0.70;;;7.30;79.30;;;;;;4996278;28;20432;-78
2022/12/06 10:24:32;;;;;;;1.00;1.00;;;7.40;79.30;;;;;;4996312;28;20484;-78
2022/12/06 10:27:09;;;;;;;0.80;0.80;;;7.50;79.30;;;;;;4977497;28;20431;-79
2022/12/06 10:29:47;;;;;;;0.90;0.90;;;7.50;79.20;;;;;;4975736;28;20441;-79
2022/12/06 10:32:18;;;;;;;0.80;0.80;;;7.50;79.10;;;;;;4975602;28;20809;-78
2022/12/06 10:34:54;;;;;;;0.90;0.90;;;7.40;79.20;;;;;;4976250;28;20490;-78
2022/12/06 10:37:35;;;;;;;0.70;0.70;;;7.40;79.20;;;;;;4975806;28;20433;-77
2022/12/06 10:40:12;;;;;;;0.83;0.83;;;7.40;79.30;;;;;;4977788;28;20439;-78
2022/12/06 10:42:43;;;;;;;0.87;0.87;;;7.40;79.50;;;;;;4977818;28;20439;-78
2022/12/06 10:48:12;;;;;;;0.90;0.90;;;7.50;79.90;;;;;;4974789;28;20434;-79
2022/12/06 10:50:41;;;;;;;0.90;0.90;;;7.50;79.80;;;;;;4974934;28;20449;-79
2022/12/06 10:53:12;;;;;;;1.00;1.00;;;7.50;79.60;;;;;;4976374;28;20454;-79
2022/12/06 10:55:45;;;;;;;1.20;1.20;;;7.60;79.50;;;;;;4975767;28;20855;-79
2022/12/06 10:58:23;;;;;;;1.00;1.00;;;7.60;79.50;;;;;;4975983;28;20439;-79
2022/12/06 11:00:55;;;;;;;0.90;0.90;;;7.60;79.40;;;;;;4974980;28;20426;-79
2022/12/06 11:03:29;;;;;;;0.97;0.97;;;7.60;79.70;;;;;;4974877;28;20446;-78
2022/12/06 11:06:00;;;;;;;1.00;1.00;;;7.60;79.50;;;;;;4975085;28;20477;-79
2022/12/06 11:08:32;;;;;;;1.00;1.00;;;7.60;79.70;;;;;;4974809;28;20431;-79
2022/12/06 11:11:01;;;;;;;0.90;0.90;;;7.70;79.40;;;;;;4974881;28;20943;-79
2022/12/06 11:13:37;;;;;;;0.90;0.90;;;7.60;79.00;;;;;;4975256;28;20978;-77
2022/12/06 11:16:09;;;;;;;0.87;0.87;;;7.30;79.30;;;;;;4974711;28;20903;-78
2022/12/06 11:18:36;;;;;;;0.80;0.80;;;7.30;79.50;;;;;;4974687;28;20466;-78
2022/12/06 11:21:12;;;;;;;0.97;0.97;;;7.20;80.10;;;;;;4974948;28;20465;-78
2022/12/06 11:23:47;;;;;;;0.80;0.80;;;7.20;80.20;;;;;;4974834;28;20453;-78
2022/12/06 11:26:23;;;;;;;1.10;1.10;;;7.30;80.00;;;;;;4975575;28;20476;-78
2022/12/06 11:29:03;;;;;;;0.90;0.90;;;7.40;79.50;;;;;;4974976;28;20441;-79
2022/12/06 11:31:33;;;;;;;0.80;0.80;;;7.40;79.60;;;;;;4974590;28;21035;-78
2022/12/06 11:34:02;;;;;;;0.90;0.90;;;7.50;79.60;;;;;;4974661;28;20545;-79
2022/12/06 11:36:29;;;;;;;1.00;1.00;;;7.50;79.70;;;;;;4974397;28;20485;-79
2022/12/06 11:38:56;;;;;;;0.90;0.90;;;7.50;79.40;;;;;;4974326;28;20461;-80
2022/12/06 11:41:26;;;;;;;0.87;0.87;;;7.50;79.50;;;;;;4974560;28;20470;-80
2022/12/06 11:43:55;;;;;;;0.80;0.80;;;7.50;79.40;;;;;;4974387;28;20450;-79
2022/12/06 11:46:23;;;;;;;0.80;0.80;;;7.50;79.50;;;;;;4974678;28;20494;-80
2022/12/06 11:48:51;;;;;;;1.00;1.00;;;7.50;79.20;;;;;;4974413;28;20457;-80
2022/12/06 11:51:20;;;;;;;1.00;1.00;;;7.40;79.60;;;;;;4974257;28;20513;-79
2022/12/06 11:53:56;;;;;;;1.10;1.10;;;7.40;79.80;;;;;;4974137;28;20818;-79
2022/12/06 11:56:25;;;;;;;1.43;1.20;;;7.40;79.70;;;;;;4974058;28;20493;-78
2022/12/06 11:59:02;;;;;;;1.03;1.03;;;7.40;79.70;;;;;;4974054;28;20450;-80
2022/12/06 12:01:42;;;;;;;1.10;1.10;;;7.30;79.70;;;;;;4974106;28;20454;-79
2022/12/06 12:04:30;;;;;;;1.00;1.00;;;7.20;79.70;;;;;;4974043;28;20450;-79
2022/12/06 12:06:58;;;;;;;1.00;1.00;;;7.20;80.00;;;;;;4975562;28;20445;-78
2022/12/06 12:09:29;;;;;;;1.00;1.00;;;7.30;80.00;;;;;;4977843;28;20446;-79
2022/12/06 12:12:01;;;;;;;1.23;1.20;;;7.20;80.00;;;;;;4977202;28;20438;-79
2022/12/06 12:14:36;;;;;;;0.90;0.90;;;7.20;80.10;;;;;;4977014;28;20908;-79
2022/12/06 12:17:04;;;;;;;1.00;1.00;;;7.20;79.80;;;;;;4977401;28;20548;-79
2022/12/06 12:19:35;;;;;;;1.07;1.07;;;7.30;79.70;;;;;;4977420;28;20434;-79
2022/12/06 12:22:15;;;;;;;1.40;1.40;;;7.40;79.90;;;;;;4977088;28;20919;-78
2022/12/06 12:24:47;;;;;;;1.20;1.20;;;7.40;79.80;;;;;;4977297;28;20435;-78
2022/12/06 12:27:43;;;;;;;1.00;1.00;;;7.30;80.30;;;;;;4977464;28;20430;-77
2022/12/06 12:30:23;;;;;;;1.13;1.13;;;7.30;80.50;;;;;;4932899;28;20971;-78
2022/12/06 12:32:52;;;;;;;1.20;1.20;;;7.30;80.80;;;;;;4976871;28;20971;-78
2022/12/06 12:35:27;;;;;;;1.10;1.10;;;7.30;80.80;;;;;;4977476;28;20490;-79
2022/12/06 12:37:58;;;;;;;1.30;1.30;;;7.30;80.30;;;;;;4976890;28;21030;-78
2022/12/06 12:40:27;;;;;;;1.20;1.20;;;7.30;80.50;;;;;;4977144;28;20438;-77
2022/12/06 12:42:59;;;;;;;1.10;1.10;;;7.30;80.80;;;;;;4977288;28;20454;-79
2022/12/06 12:45:28;;;;;;;1.43;1.43;;;7.30;80.90;;;;;;4976999;28;20466;-78
2022/12/06 12:47:57;;;;;;;1.23;1.23;;;7.20;80.90;;;;;;4977063;28;20538;-79
2022/12/06 12:50:25;;;;;;;1.60;1.50;;;7.20;81.40;;;;;;4976867;28;20455;-78
2022/12/06 12:52:52;;;;;;;0.97;0.97;;;7.20;81.40;;;;;;4976913;28;20462;-78
2022/12/06 12:55:21;;;;;;;1.30;1.30;;;7.10;81.60;;;;;;4977136;28;20486;-79
2022/12/06 12:57:50;;;;;;;1.20;1.20;;;7.00;82.20;;;;;;4976965;28;20457;-79
2022/12/06 13:00:19;;;;;;;1.30;1.30;;;7.00;82.30;;;;;;4976648;28;20968;-78
2022/12/06 13:02:51;;;;;;;1.27;1.27;;;7.00;82.60;;;;;;4977045;28;20500;-79
2022/12/06 13:05:22;;;;;;;1.00;1.00;;;7.10;82.10;;;;;;4976987;28;20549;-80
2022/12/06 13:07:50;;;;;;;0.90;0.90;;;7.10;82.10;;;;;;4977271;28;20454;-80
2022/12/06 13:10:22;;;;;;;1.07;1.07;;;7.10;82.10;;;;;;4976650;28;20453;-80
2022/12/06 13:12:52;;;;;;;0.90;0.90;;;6.90;82.90;;;;;;4977070;28;20431;-80
2022/12/06 13:15:22;;;;;;;0.80;0.80;;;7.00;83.10;;;;;;4976768;28;20494;-80
2022/12/06 13:17:55;;;;;;;0.70;0.70;;;7.00;83.00;;;;;;4976822;28;20847;-78
2022/12/06 13:20:26;;;;;;;0.70;0.70;;;7.00;82.90;;;;;;4978288;28;20435;-77
2022/12/06 13:22:56;;;;;;;0.80;0.80;;;6.90;83.20;;;;;;4976961;28;20442;-78
2022/12/06 13:25:23;;;;;;;0.60;0.60;;;6.90;83.20;;;;;;4976642;28;20466;-78
2022/12/06 13:27:53;;;;;;;0.80;0.80;;;6.80;83.10;;;;;;4976734;28;20453;-79
2022/12/06 13:30:22;;;;;;;0.70;0.70;;;6.70;83.80;;;;;;4977057;28;20459;-79
2022/12/06 13:32:53;;;;;;;0.70;0.70;;;6.70;83.90;;;;;;4976082;28;20457;-78
2022/12/06 13:35:25;;;;;;;0.57;0.57;;;6.60;84.20;;;;;;4975948;28;20491;-78
2022/12/06 13:37:54;;;;;;;0.80;0.80;;;6.60;84.30;;;;;;4976144;28;20442;-79
2022/12/06 13:40:43;;;;;;;0.60;0.60;;;6.60;84.30;;;;;;4976390;28;20446;-77
2022/12/06 13:43:55;;;;;;;0.70;0.70;;;6.70;84.30;;;;;;4975981;28;20803;-78
2022/12/06 13:46:30;;;;;;;0.60;0.60;;;6.70;83.90;;;;;;4975955;28;20498;-79
2022/12/06 13:49:00;;;;;;;0.60;0.60;;;6.70;83.60;;;;;;4975320;28;20844;-79
2022/12/06 13:51:45;;;;;;;0.63;0.63;;;6.60;83.90;;;;;;4975870;28;20442;-77
2022/12/06 13:54:36;;;;;;;0.60;0.60;;;6.50;83.60;;;;;;4975731;28;20450;-79
2022/12/06 13:57:21;;;;;;;0.70;0.70;;;6.60;83.80;;;;;;4975319;28;20980;-78
2022/12/06 13:59:47;;;;;;;0.60;0.60;;;6.60;83.70;;;;;;4975818;28;20439;-78
2022/12/06 14:02:51;;;;;;;0.50;0.50;;;6.60;83.40;;;;;;4975589;28;20449;-78
2022/12/06 14:05:55;;;;;;;0.60;0.60;;;6.40;83.80;;;;;;4975470;28;20458;-78
2022/12/06 14:08:33;;;;;;;0.60;0.60;;;6.40;84.20;;;;;;4975543;28;20452;-78
2022/12/06 14:11:25;;;;;;;0.60;0.60;;;6.40;84.10;;;;;;4975122;28;20813;-78
2022/12/06 14:14:07;;;;;;;0.70;0.70;;;6.40;83.80;;;;;;4956320;28;20457;-78
2022/12/06 14:16:38;;;;;;;0.60;0.60;;;6.20;84.50;;;;;;4974730;28;20991;-78
2022/12/06 14:19:16;;;;;;;0.50;0.50;;;6.20;84.20;;;;;;4975263;28;20434;-79
2022/12/06 14:21:51;;;;;;;0.60;0.60;;;6.10;84.20;;;;;;4984072;28;20438;-78
2022/12/06 14:24:32;;;;;;;0.60;0.60;;;6.10;84.60;;;;;;4987517;28;20462;-79
2022/12/06 14:27:13;;;;;;;0.60;0.60;;;6.10;84.40;;;;;;4987750;28;20427;-79
2022/12/06 14:29:41;;;;;;;0.60;0.60;;;6.30;84.20;;;;;;4984786;28;20442;-80
2022/12/06 14:32:09;;;;;;;0.70;0.70;;;6.30;83.90;;;;;;4985916;28;20481;-78
2022/12/06 14:34:37;;;;;;;0.60;0.60;;;6.30;83.90;;;;;;4986707;28;20514;-78
2022/12/06 14:37:12;;;;;;;0.80;0.80;;;6.30;83.80;;;;;;4986526;28;20485;-79
2022/12/06 14:39:41;;;;;;;1.00;1.00;;;6.30;84.30;;;;;;4986264;28;20437;-78
2022/12/06 14:45:03;;;;;;;0.60;0.60;;;6.40;83.80;;;;;;4987162;28;20450;-79
2022/12/06 14:47:31;;;;;;;0.60;0.60;;;6.40;83.70;;;;;;4986785;28;20458;-80
2022/12/06 14:52:56;;;;;;;0.80;0.80;;;6.50;83.60;;;;;;4987024;28;20483;-78
2022/12/06 14:55:27;;;;;;;0.70;0.70;;;6.40;83.30;;;;;;4986678;28;20584;-79
2022/12/06 14:57:57;;;;;;;0.70;0.70;;;6.30;83.70;;;;;;4986503;28;20473;-80
2022/12/06 15:00:26;;;;;;;0.80;0.80;;;6.20;83.60;;;;;;4986376;28;20522;-77
2022/12/06 15:03:02;;;;;;;0.60;0.60;;;6.20;83.80;;;;;;4986891;28;20940;-77
2022/12/06 15:05:38;;;;;;;0.70;0.70;;;6.30;83.40;;;;;;4986543;28;20466;-78
2022/12/06 15:08:32;;;;;;;0.70;0.70;;;6.40;83.30;;;;;;4986385;28;20525;-77
2022/12/06 15:11:03;;;;;;;0.80;0.80;;;6.50;82.80;;;;;;4986710;28;20493;-78
2022/12/06 15:13:29;;;;;;;0.60;0.60;;;6.50;82.70;;;;;;4986882;28;20434;-78
2022/12/06 15:16:03;;;;;;;0.60;0.60;;;6.50;82.00;;;;;;4985820;28;20577;-78
2022/12/06 15:18:39;;;;;;;0.60;0.60;;;6.40;81.80;;;;;;4986364;28;20529;-78
2022/12/06 15:21:11;;;;;;;0.70;0.70;;;6.40;81.50;;;;;;4985666;28;20449;-79
2022/12/06 15:23:40;;;;;;;0.60;0.60;;;6.50;81.40;;;;;;4986655;28;20449;-78
2022/12/06 15:26:11;;;;;;;0.70;0.70;;;6.60;80.90;;;;;;4986242;28;20481;-79
2022/12/06 15:28:39;;;;;;;0.60;0.60;;;6.60;80.90;;;;;;4986035;28;20434;-79
2022/12/06 15:31:07;;;;;;;0.70;0.70;;;6.50;81.10;;;;;;4986243;28;20491;-79
2022/12/06 15:33:34;;;;;;;0.70;0.70;;;6.50;81.30;;;;;;4985542;28;20460;-78
2022/12/06 15:36:01;;;;;;;0.60;0.60;;;6.50;80.70;;;;;;4984716;28;20593;-79
2022/12/06 15:38:28;;;;;;;0.67;0.67;;;6.40;81.10;;;;;;4985477;28;20512;-78
2022/12/06 15:40:55;;;;;;;0.70;0.70;;;6.40;80.90;;;;;;4984937;28;20458;-78
2022/12/06 15:43:28;;;;;;;0.60;0.60;;;6.40;81.30;;;;;;4989531;28;20505;-76
2022/12/06 15:45:56;;;;;;;0.63;0.63;;;6.30;81.10;;;;;;4989354;28;20474;-78
2022/12/06 15:48:23;;;;;;;0.60;0.60;;;6.40;81.10;;;;;;4991132;28;20458;-79
2022/12/06 15:50:50;;;;;;;0.73;0.73;;;6.40;80.90;;;;;;4991439;28;20458;-79
2022/12/06 15:53:20;;;;;;;0.70;0.70;;;6.40;80.70;;;;;;4990935;28;20464;-79
2022/12/06 15:55:47;;;;;;;0.70;0.70;;;6.30;80.70;;;;;;4990542;28;20549;-77
2022/12/06 15:58:13;;;;;;;0.80;0.80;;;6.30;80.60;;;;;;4990782;28;20518;-79
2022/12/06 16:00:42;;;;;;;0.60;0.60;;;6.30;80.80;;;;;;4991169;28;20461;-77
2022/12/06 16:03:09;;;;;;;0.70;0.70;;;6.40;80.80;;;;;;4991882;28;20457;-78
2022/12/06 16:05:36;;;;;;;0.60;0.60;;;6.40;80.60;;;;;;4991151;28;20630;-78
2022/12/06 16:08:03;;;;;;;0.60;0.60;;;6.40;80.50;;;;;;4989822;28;20488;-77
2022/12/06 16:10:30;;;;;;;0.53;0.53;;;6.40;80.60;;;;;;4992206;28;20509;-76
2022/12/06 16:15:42;;;;;;;0.60;0.60;;;6.50;80.30;;;;;;4994069;28;20493;-78
2022/12/06 16:20:39;;;;;;;0.60;0.60;;;6.50;79.90;;;;;;5013217;28;20477;-79
2022/12/06 16:25:56;;;;;;;1.00;1.00;;;6.50;80.00;;;;;;5013466;28;20422;-79
2022/12/06 16:28:23;;;;;;;0.67;0.67;;;6.50;79.90;;;;;;5009251;28;20468;-78
2022/12/06 16:30:51;;;;;;;0.80;0.80;;;6.60;79.80;;;;;;5008092;28;20452;-77
2022/12/06 16:33:20;;;;;;;0.63;0.63;;;6.60;79.60;;;;;;5007832;28;20524;-79
2022/12/06 16:35:47;;;;;;;0.67;0.67;;;6.60;79.40;;;;;;5007860;28;20823;-78
2022/12/06 16:38:15;;;;;;;0.60;0.60;;;6.70;79.40;;;;;;5008114;28;20545;-78
2022/12/06 16:40:43;;;;;;;0.70;0.70;;;6.70;79.40;;;;;;5006384;28;20465;-77
2022/12/06 16:43:10;;;;;;;0.70;0.70;;;6.70;79.10;;;;;;5007184;28;20521;-78
2022/12/06 16:45:38;;;;;;;0.70;0.70;;;6.70;79.30;;;;;;5009046;28;20453;-78
2022/12/06 16:48:13;;;;;;;0.60;0.60;;;6.70;79.10;;;;;;5010199;28;20472;-78
2022/12/06 16:50:40;;;;;;;0.60;0.60;;;6.70;78.90;;;;;;5008798;28;20447;-78
2022/12/06 16:53:06;;;;;;;0.60;0.60;;;6.70;79.00;;;;;;5006674;28;20512;-78
2022/12/06 16:55:33;;;;;;;0.60;0.60;;;6.70;79.10;;;;;;5009678;28;20454;-78
2022/12/06 16:58:00;;;;;;;0.67;0.67;;;6.70;79.00;;;;;;5009314;28;20469;-79
2022/12/06 17:00:27;;;;;;;0.63;0.63;;;6.70;79.00;;;;;;5008456;28;20445;-79
2022/12/06 17:02:54;;;;;;;0.70;0.70;;;6.70;78.70;;;;;;5008507;28;20442;-80
2022/12/06 17:05:25;;;;;;;0.63;0.63;;;6.70;78.80;;;;;;5010017;28;20453;-79
2022/12/06 17:07:52;;;;;;;0.70;0.70;;;6.70;79.10;;;;;;5009826;28;20556;-79
2022/12/06 17:10:20;;;;;;;0.73;0.73;;;6.70;78.90;;;;;;5008160;28;20449;-79
2022/12/06 17:12:48;;;;;;;0.70;0.70;;;6.70;79.10;;;;;;5008197;28;21013;-79
2022/12/06 17:15:17;;;;;;;0.70;0.70;;;6.70;79.20;;;;;;5008477;28;20505;-79
2022/12/06 17:17:44;;;;;;;0.70;0.70;;;6.70;79.10;;;;;;5007989;28;20493;-78
2022/12/06 17:20:13;;;;;;;0.67;0.67;;;6.70;79.10;;;;;;5008480;28;20912;-79
2022/12/06 17:22:41;;;;;;;0.70;0.70;;;6.70;79.10;;;;;;5008697;28;20468;-80
2022/12/06 17:25:10;;;;;;;0.70;0.70;;;6.70;79.30;;;;;;5008321;28;20455;-79
2022/12/06 17:27:38;;;;;;;0.80;0.80;;;6.70;79.30;;;;;;5007952;28;20473;-80
2022/12/06 17:30:07;;;;;;;0.60;0.60;;;6.70;79.30;;;;;;5008015;28;20516;-79
2022/12/06 17:32:33;;;;;;;0.60;0.60;;;6.70;79.20;;;;;;5007641;28;20552;-80
2022/12/06 17:35:00;;;;;;;0.50;0.50;;;6.70;79.30;;;;;;5007054;28;20449;-78
2022/12/06 17:37:27;;;;;;;0.70;0.70;;;6.70;79.30;;;;;;5007420;28;20495;-79
2022/12/06 17:39:55;;;;;;;0.60;0.60;;;6.60;79.60;;;;;;5006976;28;20456;-79
2022/12/06 17:45:07;;;;;;;0.60;0.60;;;6.70;79.50;;;;;;5007950;28;20461;-79
2022/12/06 17:47:34;;;;;;;0.63;0.63;;;6.70;79.30;;;;;;5007317;28;20553;-79
2022/12/06 17:50:00;;;;;;;0.50;0.50;;;6.70;79.20;;;;;;5007192;28;20453;-79
2022/12/06 17:52:27;;;;;;;0.60;0.60;;;6.70;79.30;;;;;;5008022;28;20509;-79
2022/12/06 17:54:55;;;;;;;0.70;0.70;;;6.80;79.40;;;;;;5007611;28;20449;-79
2022/12/06 17:57:22;;;;;;;0.60;0.60;;;6.80;79.30;;;;;;5007435;28;20489;-78
2022/12/06 17:59:49;;;;;;;0.70;0.70;;;6.70;79.40;;;;;;5007226;28;20890;-79
2022/12/06 18:02:18;;;;;;;0.70;0.70;;;6.70;79.50;;;;;;5006474;28;20455;-79